createdAt,value
2023-02-11T00:00:01.523Z,99282.00
2023-02-11T00:02:31.684Z,99273.66
2023-02-11T00:05:00.167Z,99275.97
2023-02-11T00:07:33.896Z,99262.72
2023-02-11T00:10:02.165Z,99268.00
2023-02-11T00:12:30.449Z,99264.38
2023-02-11T00:14:58.665Z,99265.22
2023-02-11T00:17:26.507Z,99266.84
2023-02-11T00:19:54.426Z,99265.78
2023-02-11T00:22:22.165Z,99267.59
2023-02-11T00:24:51.396Z,99266.53
2023-02-11T00:27:19.308Z,99270.25
2023-02-11T00:29:48.483Z,99266.25
2023-02-11T00:32:16.231Z,99268.00
2023-02-11T00:34:44.139Z,99258.97
2023-02-11T00:37:12.056Z,99267.47
2023-02-11T00:39:40.252Z,99256.47
2023-02-11T00:42:15.699Z,99252.78
2023-02-11T00:44:43.850Z,99263.84
2023-02-11T00:47:13.791Z,99252.50
2023-02-11T00:49:42.037Z,99248.03
2023-02-11T00:52:10.008Z,99243.81
2023-02-11T00:54:37.877Z,99249.31
2023-02-11T00:57:05.720Z,99238.75
2023-02-11T00:59:35.202Z,99228.72
2023-02-11T01:02:03.073Z,99231.06
2023-02-11T01:04:30.938Z,99232.69
2023-02-11T01:06:58.812Z,99225.19
2023-02-11T01:09:26.556Z,99230.00
2023-02-11T01:11:54.259Z,99227.44
2023-02-11T01:14:22.546Z,99223.84
2023-02-11T01:16:52.147Z,99231.59
2023-02-11T01:19:19.961Z,99218.22
2023-02-11T01:21:48.018Z,99221.69
2023-02-11T01:24:15.820Z,99218.25
2023-02-11T01:26:43.865Z,99219.00
2023-02-11T01:29:11.875Z,99224.56
2023-02-11T01:31:39.839Z,99225.59
2023-02-11T01:34:08.914Z,99223.75
2023-02-11T01:36:37.141Z,99227.88
2023-02-11T01:39:05.332Z,99235.03
2023-02-11T01:41:34.618Z,99232.25
2023-02-11T01:44:25.926Z,99235.75
2023-02-11T01:46:54.618Z,99227.38
2023-02-11T01:49:31.930Z,99227.09
2023-02-11T01:52:08.109Z,99226.28
2023-02-11T01:54:48.049Z,99228.75
2023-02-11T01:57:21.866Z,99218.72
2023-02-11T02:00:01.389Z,99220.84
2023-02-11T02:02:39.931Z,99217.28
2023-02-11T02:05:20.574Z,99214.00
2023-02-11T02:07:58.861Z,99206.72
2023-02-11T02:10:29.181Z,99209.88
2023-02-11T02:12:58.177Z,99201.72
2023-02-11T02:15:31.547Z,99200.34
2023-02-11T02:18:08.810Z,99198.84
2023-02-11T02:21:10.062Z,99201.75
2023-02-11T02:24:08.549Z,99198.19
2023-02-11T02:27:02.876Z,99200.09
2023-02-11T02:30:03.242Z,99201.41
2023-02-11T02:32:52.276Z,99202.72
2023-02-11T02:35:34.867Z,99198.56
2023-02-11T02:38:11.653Z,99193.28
2023-02-11T02:40:48.043Z,99185.00
2023-02-11T02:43:18.751Z,99185.75
2023-02-11T02:45:48.885Z,99186.16
2023-02-11T02:48:37.460Z,99185.66
2023-02-11T02:51:28.745Z,99180.94
2023-02-11T02:54:19.014Z,99177.81
2023-02-11T02:56:59.432Z,99173.31
2023-02-11T03:00:10.945Z,99169.09
2023-02-11T03:02:54.099Z,99173.13
2023-02-11T03:05:33.607Z,99170.63
2023-02-11T03:08:09.728Z,99178.25
2023-02-11T03:10:45.648Z,99176.09
2023-02-11T03:13:15.807Z,99176.47
2023-02-11T03:15:50.411Z,99171.13
2023-02-11T03:18:24.497Z,99166.09
2023-02-11T03:20:56.563Z,99166.84
2023-02-11T03:23:33.240Z,99167.44
2023-02-11T03:26:13.537Z,99165.28
2023-02-11T03:28:51.500Z,99173.75
2023-02-11T03:31:29.588Z,99162.91
2023-02-11T03:34:05.689Z,99154.97
2023-02-11T03:36:43.560Z,99154.53
2023-02-11T03:39:16.155Z,99153.59
2023-02-11T03:41:49.559Z,99149.44
2023-02-11T03:44:19.570Z,99145.25
2023-02-11T03:46:52.344Z,99144.94
2023-02-11T03:49:24.473Z,99149.41
2023-02-11T03:51:56.574Z,99144.47
2023-02-11T03:54:31.029Z,99146.66
2023-02-11T03:57:01.989Z,99137.56
2023-02-11T03:59:32.675Z,99140.44
2023-02-11T04:02:00.521Z,99141.41
2023-02-11T04:04:28.268Z,99142.94
2023-02-11T04:06:57.611Z,99141.69
2023-02-11T04:09:25.459Z,99150.91
2023-02-11T04:11:53.494Z,99141.44
2023-02-11T04:14:21.268Z,99147.53
2023-02-11T04:16:49.107Z,99134.84
2023-02-11T04:19:21.095Z,99134.84
2023-02-11T04:21:49.275Z,99136.97
2023-02-11T04:24:19.795Z,99139.59
2023-02-11T04:26:48.727Z,99142.19
2023-02-11T04:29:16.589Z,99134.81
2023-02-11T04:31:44.971Z,99140.34
2023-02-11T04:34:12.729Z,99134.25
2023-02-11T04:36:40.485Z,99137.50
2023-02-11T04:39:08.198Z,99146.47
2023-02-11T04:41:37.227Z,99147.25
2023-02-11T04:44:05.766Z,99144.91
2023-02-11T04:46:34.128Z,99145.63
2023-02-11T04:49:02.149Z,99141.94
2023-02-11T04:51:29.950Z,99136.13
2023-02-11T04:53:57.659Z,99142.72
2023-02-11T04:56:25.355Z,99144.34
2023-02-11T04:58:54.527Z,99141.94
2023-02-11T05:01:22.647Z,99126.31
2023-02-11T05:03:50.696Z,99123.81
2023-02-11T05:06:18.478Z,99126.94
2023-02-11T05:08:46.123Z,99122.13
2023-02-11T05:11:17.781Z,99118.91
2023-02-11T05:13:46.460Z,99126.84
2023-02-11T05:16:16.730Z,99122.16
2023-02-11T05:18:45.523Z,99124.25
2023-02-11T05:21:16.082Z,99122.13
2023-02-11T05:23:44.975Z,99122.72
2023-02-11T05:26:13.669Z,99116.38
2023-02-11T05:28:41.936Z,99111.69
2023-02-11T05:31:11.172Z,99113.00
2023-02-11T05:33:42.122Z,99108.28
2023-02-11T05:36:12.908Z,99111.69
2023-02-11T05:38:40.958Z,99110.44
2023-02-11T05:41:10.687Z,99110.47
2023-02-11T05:43:38.348Z,99102.03
2023-02-11T05:46:06.575Z,99107.84
2023-02-11T05:48:34.904Z,99107.06
2023-02-11T05:51:04.709Z,99105.19
2023-02-11T05:53:32.417Z,99099.56
2023-02-11T05:56:00.369Z,99114.81
2023-02-11T05:58:28.670Z,99111.13
2023-02-11T06:00:56.516Z,99108.53
2023-02-11T06:03:24.125Z,99104.84
2023-02-11T06:05:52.227Z,99106.94
2023-02-11T06:08:21.504Z,99110.63
2023-02-11T06:10:49.240Z,99109.63
2023-02-11T06:13:17.075Z,99113.25
2023-02-11T06:15:44.729Z,99118.78
2023-02-11T06:18:12.273Z,99109.84
2023-02-11T06:20:39.907Z,99120.88
2023-02-11T06:23:07.591Z,99117.41
2023-02-11T06:25:37.187Z,99117.75
2023-02-11T06:28:06.311Z,99106.44
2023-02-11T06:30:35.147Z,99107.44
2023-02-11T06:33:04.184Z,99115.88
2023-02-11T06:35:33.043Z,99123.22
2023-02-11T06:38:01.966Z,99122.69
2023-02-11T06:40:29.863Z,99122.78
2023-02-11T06:42:59.129Z,99127.97
2023-02-11T06:45:26.825Z,99126.06
2023-02-11T06:47:54.597Z,99131.66
2023-02-11T06:50:22.324Z,99133.66
2023-02-11T06:52:49.962Z,99135.75
2023-02-11T06:55:17.709Z,99135.13
2023-02-11T06:57:45.863Z,99136.69
2023-02-11T07:00:16.161Z,99143.22
2023-02-11T07:03:03.888Z,99140.09
2023-02-11T07:05:32.800Z,99140.06
2023-02-11T07:08:00.445Z,99137.31
2023-02-11T07:10:27.992Z,99142.16
2023-02-11T07:12:58.648Z,99135.41
2023-02-11T07:15:29.951Z,99140.69
2023-02-11T07:17:57.637Z,99154.69
2023-02-11T07:20:25.710Z,99160.47
2023-02-11T07:22:53.337Z,99171.88
2023-02-11T07:25:21.046Z,99173.16
2023-02-11T07:27:48.627Z,99173.91
2023-02-11T07:30:16.424Z,99180.31
2023-02-11T07:32:45.310Z,99182.84
2023-02-11T07:35:13.013Z,99182.06
2023-02-11T07:37:41.069Z,99191.50
2023-02-11T07:40:09.478Z,99194.97
2023-02-11T07:42:37.443Z,99190.16
2023-02-11T07:45:05.817Z,99203.38
2023-02-11T07:47:34.702Z,99193.56
2023-02-11T07:50:03.780Z,99192.47
2023-02-11T07:52:31.810Z,99193.84
2023-02-11T08:00:28.184Z,99206.03
2023-02-11T08:02:56.885Z,99204.06
2023-02-11T08:05:26.155Z,99200.91
2023-02-11T08:07:55.275Z,99201.22
2023-02-11T08:10:23.265Z,99208.75
2023-02-11T08:12:50.948Z,99208.53
2023-02-11T08:15:18.552Z,99197.88
2023-02-11T08:17:46.724Z,99181.63
2023-02-11T08:20:14.378Z,99164.94
2023-02-11T08:22:44.071Z,99165.22
2023-02-11T08:25:11.726Z,99194.91
2023-02-11T08:27:40.032Z,99202.25
2023-02-11T08:30:08.722Z,99203.13
2023-02-11T08:32:36.451Z,99214.44
2023-02-11T08:35:04.796Z,99217.06
2023-02-11T08:37:33.455Z,99216.00
2023-02-11T08:40:02.553Z,99214.94
2023-02-11T08:42:30.235Z,99218.44
2023-02-11T08:44:57.895Z,99223.84
2023-02-11T08:47:25.675Z,99221.22
2023-02-11T08:49:53.241Z,99218.19
2023-02-11T08:52:20.859Z,99221.25
2023-02-11T08:54:48.443Z,99216.44
2023-02-11T08:57:17.374Z,99226.50
2023-02-11T08:59:44.985Z,99230.84
2023-02-11T09:02:14.165Z,99233.53
2023-02-11T09:04:41.828Z,99223.94
2023-02-11T09:07:09.638Z,99240.66
2023-02-11T09:09:37.260Z,99229.06
2023-02-11T09:12:05.560Z,99227.22
2023-02-11T09:14:34.508Z,99232.31
2023-02-11T09:17:02.155Z,99230.81
2023-02-11T09:19:29.768Z,99247.03
2023-02-11T09:21:57.998Z,99243.53
2023-02-11T09:24:25.692Z,99245.03
2023-02-11T09:26:53.375Z,99244.13
2023-02-11T09:29:22.473Z,99249.28
2023-02-11T09:31:51.680Z,99246.94
2023-02-11T09:34:19.563Z,99245.81
2023-02-11T09:36:47.328Z,99247.84
2023-02-11T09:39:18.349Z,99241.06
2023-02-11T09:42:08.725Z,99238.81
2023-02-11T09:44:38.907Z,99239.94
2023-02-11T09:47:25.245Z,99246.38
2023-02-11T09:49:59.961Z,99250.34
2023-02-11T09:52:37.052Z,99241.53
2023-02-11T09:55:11.516Z,99249.88
2023-02-11T09:57:39.254Z,99252.06
2023-02-11T10:00:26.718Z,99249.34
2023-02-11T10:03:21.524Z,99255.50
2023-02-11T10:06:10.014Z,99260.13
2023-02-11T10:08:53.377Z,99263.38
2023-02-11T10:11:32.207Z,99255.34
2023-02-11T10:14:21.863Z,99261.09
2023-02-11T10:17:07.841Z,99260.84
2023-02-11T10:19:56.850Z,99259.13
2023-02-11T10:22:32.686Z,99253.28
2023-02-11T10:25:06.326Z,99253.03
2023-02-11T10:27:36.127Z,99256.91
2023-02-11T10:30:18.371Z,99241.84
2023-02-11T10:32:52.694Z,99248.25
2023-02-11T10:35:23.692Z,99240.03
2023-02-11T10:37:51.479Z,99239.97
2023-02-11T10:40:21.510Z,99241.97
2023-02-11T10:42:54.328Z,99236.88
2023-02-11T10:45:30.522Z,99237.84
2023-02-11T10:47:58.213Z,99237.47
2023-02-11T10:50:29.462Z,99231.00
2023-02-11T10:53:13.197Z,99229.63
2023-02-11T10:55:51.207Z,99223.38
2023-02-11T10:58:28.761Z,99223.84
2023-02-11T11:00:59.786Z,99219.88
2023-02-11T11:03:40.512Z,99216.41
2023-02-11T11:06:10.122Z,99211.59
2023-02-11T11:08:43.089Z,99205.78
2023-02-11T11:11:16.134Z,99199.84
2023-02-11T11:13:57.845Z,99213.53
2023-02-11T11:16:27.508Z,99210.28
2023-02-11T11:19:20.385Z,99196.81
2023-02-11T11:21:52.377Z,99205.50
2023-02-11T11:24:22.646Z,99201.69
2023-02-11T11:26:53.851Z,99194.44
2023-02-11T11:29:29.468Z,99200.41
2023-02-11T11:32:00.306Z,99201.59
2023-02-11T11:34:31.812Z,99188.84
2023-02-11T11:37:10.798Z,99191.00
2023-02-11T11:39:43.145Z,99180.16
2023-02-11T11:42:25.954Z,99168.72
2023-02-11T11:44:59.111Z,99171.75
2023-02-11T11:47:34.885Z,99171.56
2023-02-11T11:50:26.832Z,99162.25
2023-02-11T11:53:01.037Z,99167.63
2023-02-11T11:55:34.875Z,99155.97
2023-02-11T11:58:02.503Z,99161.41
2023-02-11T12:00:40.965Z,99152.59
2023-02-11T12:03:40.962Z,99140.44
2023-02-11T12:06:22.914Z,99142.97
2023-02-11T12:09:09.875Z,99146.00
2023-02-11T12:12:19.620Z,99136.78
2023-02-11T12:15:15.696Z,99133.16
2023-02-11T12:17:59.293Z,99136.88
2023-02-11T12:20:38.546Z,99130.94
2023-02-11T12:23:38.706Z,99121.59
2023-02-11T12:26:15.772Z,99124.84
2023-02-11T12:29:03.206Z,99121.53
2023-02-11T12:31:48.340Z,99110.53
2023-02-11T12:34:39.417Z,99116.59
2023-02-11T12:37:23.661Z,99112.81
2023-02-11T12:48:25.059Z,99106.63
2023-02-11T12:51:07.447Z,99109.63
2023-02-11T12:53:55.861Z,99095.50
2023-02-11T12:59:20.795Z,99092.19
2023-02-11T13:01:51.918Z,99094.88
2023-02-11T13:18:44.740Z,99063.50
2023-02-11T13:21:56.030Z,99062.38
2023-02-11T13:24:47.749Z,99055.50
2023-02-11T13:27:32.273Z,99060.78
2023-02-11T13:30:23.459Z,99058.75
2023-02-11T13:33:16.485Z,99048.50
2023-02-11T13:35:49.514Z,99043.03
2023-02-11T13:38:21.012Z,99052.06
2023-02-11T13:41:02.719Z,99050.22
2023-02-11T13:43:33.224Z,99055.88
2023-02-11T13:46:04.331Z,99057.78
2023-02-11T13:48:48.864Z,99054.31
2023-02-11T13:51:33.159Z,99049.63
2023-02-11T13:54:02.858Z,99044.34
2023-02-11T13:56:35.790Z,99048.31
2023-02-11T13:59:06.201Z,99044.03
2023-02-11T14:01:58.073Z,99046.81
2023-02-11T14:04:27.556Z,99032.00
2023-02-11T14:07:27.667Z,99030.63
2023-02-11T14:09:55.446Z,99033.81
2023-02-11T14:12:31.299Z,99033.59
2023-02-11T14:15:19.257Z,99031.69
2023-02-11T14:17:47.842Z,99024.97
2023-02-11T14:20:42.399Z,99022.72
2023-02-11T14:23:26.422Z,99024.97
2023-02-11T14:26:10.135Z,99023.00
2023-02-11T14:28:42.067Z,99023.53
2023-02-11T14:31:18.464Z,99021.56
2023-02-11T14:34:03.561Z,99034.75
2023-02-11T14:37:02.152Z,99030.97
2023-02-11T14:39:48.925Z,99034.31
2023-02-11T14:42:21.256Z,99029.63
2023-02-11T14:44:52.494Z,99027.53
2023-02-11T14:47:27.363Z,99030.38
2023-02-11T14:49:56.258Z,99022.84
2023-02-11T14:52:31.373Z,99020.69
2023-02-11T14:55:14.789Z,99011.88
2023-02-11T14:57:42.624Z,99014.75
2023-02-11T15:00:18.332Z,99009.34
2023-02-11T15:02:47.415Z,99011.88
2023-02-11T15:05:18.551Z,98996.84
2023-02-11T15:07:52.332Z,99009.97
2023-02-11T15:10:34.540Z,99006.63
2023-02-11T15:13:04.456Z,99008.38
2023-02-11T15:15:34.291Z,99014.38
2023-02-11T15:18:05.645Z,99000.69
2023-02-11T15:20:34.844Z,99003.53
2023-02-11T15:23:16.382Z,99008.38
2023-02-11T15:25:47.458Z,99001.19
2023-02-11T15:28:22.416Z,99001.19
2023-02-11T15:30:57.501Z,98998.38
2023-02-11T15:33:25.643Z,99000.72
2023-02-11T15:35:53.528Z,98994.91
2023-02-11T15:38:23.324Z,98995.84
2023-02-11T15:40:54.975Z,98994.59
2023-02-11T15:43:22.789Z,98986.09
2023-02-11T15:46:00.721Z,98984.38
2023-02-11T15:48:36.616Z,98987.06
2023-02-11T15:51:13.316Z,98984.25
2023-02-11T15:53:48.395Z,98986.91
2023-02-11T15:56:23.400Z,98985.81
2023-02-11T15:58:54.970Z,98985.19
2023-02-11T16:01:34.105Z,98987.59
2023-02-11T16:04:03.427Z,98983.44
2023-02-11T16:06:38.922Z,98995.59
2023-02-11T16:09:25.919Z,98990.69
2023-02-11T16:11:56.444Z,98985.16
2023-02-11T16:14:29.342Z,98989.03
2023-02-11T16:17:00.509Z,98985.09
2023-02-11T16:19:30.114Z,98989.03
2023-02-11T16:22:02.094Z,98973.88
2023-02-11T16:24:34.865Z,98982.06
2023-02-11T16:27:06.601Z,98982.66
2023-02-11T16:29:37.046Z,98989.19
2023-02-11T16:32:08.528Z,98990.13
2023-02-11T16:34:37.051Z,98992.75
2023-02-11T16:37:05.901Z,99004.72
2023-02-11T16:39:36.003Z,98994.91
2023-02-11T16:42:07.090Z,99005.69
2023-02-11T16:44:35.602Z,98995.56
2023-02-11T16:47:06.916Z,99005.44
2023-02-11T16:49:37.956Z,99002.59
2023-02-11T16:52:08.073Z,99002.53
2023-02-11T16:54:37.596Z,98998.41
2023-02-11T16:57:13.973Z,99006.28
2023-02-11T16:59:41.793Z,98998.28
2023-02-11T17:02:16.843Z,99015.69
2023-02-11T17:04:46.858Z,99009.25
2023-02-11T17:07:16.099Z,99017.78
2023-02-11T17:09:45.210Z,99008.50
2023-02-11T17:12:12.913Z,99015.16
2023-02-11T17:14:40.909Z,99014.69
2023-02-11T17:17:09.612Z,99009.28
2023-02-11T17:19:37.640Z,99013.22
2023-02-11T17:22:06.186Z,99015.56
2023-02-11T17:24:34.119Z,99016.56
2023-02-11T17:27:03.951Z,99010.16
2023-02-11T17:29:31.713Z,99019.22
2023-02-11T17:31:59.722Z,99016.94
2023-02-11T17:34:28.541Z,99017.72
2023-02-11T17:36:56.240Z,99022.72
2023-02-11T17:39:24.006Z,99024.88
2023-02-11T17:41:52.085Z,99029.75
2023-02-11T17:44:21.257Z,99035.16
2023-02-11T17:46:50.385Z,99038.50
2023-02-11T17:49:18.211Z,99035.75
2023-02-11T17:51:46.602Z,99036.78
2023-02-11T17:54:17.143Z,99035.94
2023-02-11T17:56:46.102Z,99041.72
2023-02-11T17:59:14.754Z,99038.88
2023-02-11T18:01:43.818Z,99053.31
2023-02-11T18:04:14.234Z,99055.13
2023-02-11T18:06:42.316Z,99054.59
2023-02-11T18:09:10.831Z,99056.88
2023-02-11T18:11:40.260Z,99061.19
2023-02-11T18:14:09.866Z,99064.94
2023-02-11T18:16:40.210Z,99056.97
2023-02-11T18:19:10.666Z,99062.69
2023-02-11T18:21:39.017Z,99053.66
2023-02-11T18:24:07.402Z,99061.91
2023-02-11T18:26:35.967Z,99063.34
2023-02-11T18:29:04.595Z,99064.06
2023-02-11T18:31:32.751Z,99065.81
2023-02-11T18:34:00.462Z,99063.88
2023-02-11T18:36:29.521Z,99065.75
2023-02-11T18:38:58.368Z,99066.31
2023-02-11T18:41:27.064Z,99067.22
2023-02-11T18:43:57.390Z,99066.72
2023-02-11T18:46:25.077Z,99068.81
2023-02-11T18:48:55.598Z,99081.97
2023-02-11T18:51:24.623Z,99074.72
2023-02-11T18:53:53.795Z,99073.16
2023-02-11T18:56:23.512Z,99078.75
2023-02-11T18:58:51.555Z,99077.19
2023-02-11T19:01:21.846Z,99074.31
2023-02-11T19:03:50.081Z,99078.56
2023-02-11T19:06:20.870Z,99079.94
2023-02-11T19:08:48.552Z,99082.41
2023-02-11T19:11:18.000Z,99089.25
2023-02-11T19:13:45.839Z,99086.13
2023-02-11T19:16:14.069Z,99093.97
2023-02-11T19:18:41.808Z,99088.97
2023-02-11T19:21:11.389Z,99082.91
2023-02-11T19:23:39.497Z,99077.28
2023-02-11T19:26:07.404Z,99084.34
2023-02-11T19:28:36.553Z,99087.63
2023-02-11T19:31:08.658Z,99089.19
2023-02-11T19:33:36.806Z,99090.84
2023-02-11T19:36:05.967Z,99091.63
2023-02-11T19:38:33.936Z,99094.56
2023-02-11T19:41:02.472Z,99097.50
2023-02-11T19:43:30.310Z,99096.06
2023-02-11T19:46:01.337Z,99096.28
2023-02-11T19:48:29.423Z,99098.16
2023-02-11T19:50:57.614Z,99097.00
2023-02-11T19:53:25.571Z,99098.50
2023-02-11T19:55:53.576Z,99094.66
2023-02-11T19:58:21.459Z,99093.69
2023-02-11T20:00:49.594Z,99101.78
2023-02-11T20:03:18.863Z,99092.28
2023-02-11T20:05:46.669Z,99091.13
2023-02-11T20:08:14.444Z,99092.38
2023-02-11T20:10:42.321Z,99093.69
2023-02-11T20:13:10.048Z,99088.34
2023-02-11T20:15:37.868Z,99091.19
2023-02-11T20:18:05.694Z,99090.06
2023-02-11T20:20:34.824Z,99092.78
2023-02-11T20:23:02.494Z,99090.63
2023-02-11T20:25:30.259Z,99091.63
2023-02-11T20:27:58.228Z,99090.63
2023-02-11T20:30:26.085Z,99080.59
2023-02-11T20:32:54.021Z,99077.47
2023-02-11T20:35:21.892Z,99084.06
2023-02-11T20:37:51.463Z,99085.25
2023-02-11T20:40:19.688Z,99078.47
2023-02-11T20:42:47.760Z,99080.16
2023-02-11T20:45:15.726Z,99078.50
2023-02-11T20:47:43.498Z,99082.19
2023-02-11T20:50:11.520Z,99080.66
2023-02-11T20:52:39.413Z,99070.84
2023-02-11T20:55:10.863Z,99071.13
2023-02-11T20:57:38.871Z,99077.38
2023-02-11T21:00:08.038Z,99078.00
2023-02-11T21:02:35.980Z,99081.53
2023-02-11T21:05:04.143Z,99086.75
2023-02-11T21:07:32.061Z,99087.81
2023-02-11T21:09:59.767Z,99082.25
2023-02-11T21:12:29.025Z,99081.69
2023-02-11T21:14:57.157Z,99081.75
2023-02-11T21:17:25.238Z,99075.56
2023-02-11T21:19:53.197Z,99081.16
2023-02-11T21:22:21.220Z,99082.38
2023-02-11T21:24:49.557Z,99086.88
2023-02-11T21:27:17.427Z,99081.56
2023-02-11T21:29:54.228Z,99075.28
2023-02-11T21:32:23.279Z,99078.72
2023-02-11T21:34:51.074Z,99084.19
2023-02-11T21:37:18.797Z,99074.94
2023-02-11T21:39:46.829Z,99078.53
2023-02-11T21:42:15.707Z,99080.75
2023-02-11T21:44:43.659Z,99077.78
2023-02-11T21:47:13.439Z,99074.09
2023-02-11T21:49:42.917Z,99068.47
2023-02-11T21:52:10.841Z,99079.59
2023-02-11T21:54:38.725Z,99072.00
2023-02-11T21:57:06.488Z,99077.78
2023-02-11T21:59:34.255Z,99081.69
2023-02-11T22:02:02.229Z,99078.47
2023-02-11T22:04:32.554Z,99083.19
2023-02-11T22:07:00.774Z,99080.91
2023-02-11T22:09:29.607Z,99081.25
2023-02-11T22:11:57.428Z,99087.22
2023-02-11T22:14:25.565Z,99085.66
2023-02-11T22:16:53.483Z,99087.69
2023-02-11T22:19:21.393Z,99091.88
2023-02-11T22:21:51.403Z,99089.41
2023-02-11T22:24:19.285Z,99084.94
2023-02-11T22:26:47.093Z,99083.38
2023-02-11T22:29:14.997Z,99088.25
2023-02-11T22:31:47.497Z,99093.91
2023-02-11T22:34:15.367Z,99085.19
2023-02-11T22:36:43.144Z,99083.91
2023-02-11T22:39:14.895Z,99087.25
2023-02-11T22:41:44.182Z,99092.50
2023-02-11T22:44:14.090Z,99088.25
2023-02-11T22:46:42.478Z,99091.84
2023-02-11T22:49:16.659Z,99089.56
2023-02-11T22:51:45.957Z,99085.09
2023-02-11T22:54:16.954Z,99086.31
2023-02-11T22:56:49.759Z,99084.59
2023-02-11T22:59:18.553Z,99091.72
2023-02-11T23:01:46.666Z,99093.56
2023-02-11T23:04:17.060Z,99089.28
2023-02-11T23:06:45.663Z,99088.09
2023-02-11T23:09:15.418Z,99084.88
2023-02-11T23:11:43.193Z,99086.81
2023-02-11T23:14:10.956Z,99088.63
2023-02-11T23:16:39.319Z,99082.50
2023-02-11T23:19:09.983Z,99093.44
2023-02-11T23:21:39.122Z,99087.50
2023-02-11T23:24:11.556Z,99082.16
2023-02-11T23:26:42.473Z,99080.88
2023-02-11T23:29:12.177Z,99079.34
2023-02-11T23:31:42.586Z,99084.72
2023-02-11T23:34:10.983Z,99087.88
2023-02-11T23:36:38.832Z,99086.25
2023-02-11T23:39:06.648Z,99072.72
2023-02-11T23:41:34.705Z,99074.88
2023-02-11T23:44:04.082Z,99079.31
2023-02-11T23:46:31.862Z,99081.03
2023-02-11T23:49:00.440Z,99074.56
2023-02-11T23:51:28.460Z,99080.41
2023-02-11T23:53:57.336Z,99073.84
2023-02-11T23:56:28.154Z,99067.00
2023-02-11T23:58:58.055Z,99076.50
